createdAt,value
2017-11-18T00:00:05.324Z,99040.30
2017-11-18T00:02:32.815Z,99035.81
2017-11-18T00:05:00.279Z,99040.28
2017-11-18T00:07:27.748Z,99043.33
2017-11-18T00:09:55.240Z,99044.19
2017-11-18T00:12:22.720Z,99039.37
2017-11-18T00:14:50.214Z,99037.89
2017-11-18T00:17:17.674Z,99042.90
2017-11-18T00:19:45.428Z,99041.94
2017-11-18T00:22:12.897Z,99035.44
2017-11-18T00:24:40.368Z,99034.95
2017-11-18T00:27:07.862Z,99034.00
2017-11-18T00:29:35.332Z,99040.00
2017-11-18T00:32:02.829Z,99034.89
2017-11-18T00:34:30.289Z,99038.04
2017-11-18T00:36:57.775Z,99029.39
2017-11-18T00:39:25.262Z,99029.77
2017-11-18T00:41:52.739Z,99025.45
2017-11-18T00:44:20.220Z,99023.00
2017-11-18T00:46:47.690Z,99017.22
2017-11-18T00:49:15.189Z,99018.87
2017-11-18T00:51:42.681Z,99016.78
2017-11-18T00:54:10.167Z,99018.52
2017-11-18T00:56:37.655Z,99012.01
2017-11-18T00:59:05.141Z,99017.14
2017-11-18T01:01:32.615Z,99011.96
2017-11-18T01:04:00.116Z,99015.31
2017-11-18T01:06:27.610Z,99004.14
2017-11-18T01:08:55.084Z,99005.89
2017-11-18T01:11:22.581Z,99004.09
2017-11-18T01:13:50.055Z,99005.44
2017-11-18T01:16:17.552Z,99001.92
2017-11-18T01:18:45.056Z,98997.08
2017-11-18T01:21:12.555Z,98995.95
2017-11-18T01:23:40.036Z,98994.66
2017-11-18T01:26:07.511Z,98987.02
2017-11-18T01:28:35.026Z,98988.76
2017-11-18T01:31:02.495Z,98990.56
2017-11-18T01:33:29.996Z,98981.52
2017-11-18T01:35:57.459Z,98974.45
2017-11-18T01:38:24.928Z,98978.80
2017-11-18T01:40:52.413Z,98971.50
2017-11-18T01:43:19.887Z,98973.16
2017-11-18T01:45:47.385Z,98967.73
2017-11-18T01:48:14.847Z,98965.37
2017-11-18T01:50:42.331Z,98968.00
2017-11-18T01:53:09.815Z,98967.64
2017-11-18T01:55:37.304Z,98964.59
2017-11-18T01:58:04.794Z,98962.11
2017-11-18T02:00:32.267Z,98958.84
2017-11-18T02:02:59.755Z,98958.82
2017-11-18T02:05:27.225Z,98961.20
2017-11-18T02:07:54.687Z,98960.55
2017-11-18T02:10:22.176Z,98960.19
2017-11-18T02:12:49.651Z,98958.46
2017-11-18T02:15:17.122Z,98958.44
2017-11-18T02:17:44.619Z,98953.55
2017-11-18T02:20:12.082Z,98954.15
2017-11-18T02:22:39.580Z,98945.94
2017-11-18T02:25:07.049Z,98938.46
2017-11-18T02:27:34.566Z,98940.55
2017-11-18T02:30:02.038Z,98936.10
2017-11-18T02:32:29.529Z,98939.49
2017-11-18T02:34:57.023Z,98933.80
2017-11-18T02:37:24.517Z,98931.91
2017-11-18T02:39:52.009Z,98934.23
2017-11-18T02:42:19.490Z,98924.14
2017-11-18T02:44:46.946Z,98928.63
2017-11-18T02:47:14.430Z,98924.78
2017-11-18T02:49:41.920Z,98915.98
2017-11-18T02:52:09.414Z,98915.56
2017-11-18T02:54:36.890Z,98917.86
2017-11-18T02:57:04.347Z,98915.64
2017-11-18T02:59:31.835Z,98916.87
2017-11-18T03:01:59.303Z,98916.33
2017-11-18T03:04:26.773Z,98911.76
2017-11-18T03:06:54.540Z,98917.70
2017-11-18T03:09:22.011Z,98917.44
2017-11-18T03:11:49.478Z,98920.30
2017-11-18T03:14:16.966Z,98923.85
2017-11-18T03:16:44.430Z,98920.75
2017-11-18T03:19:11.915Z,98924.73
2017-11-18T03:21:39.380Z,98915.34
2017-11-18T03:24:06.844Z,98917.70
2017-11-18T03:26:34.339Z,98912.95
2017-11-18T03:29:01.816Z,98904.37
2017-11-18T03:31:29.312Z,98902.78
2017-11-18T03:33:56.775Z,98911.38
2017-11-18T03:36:24.269Z,98901.72
2017-11-18T03:38:51.784Z,98900.06
2017-11-18T03:41:19.251Z,98902.80
2017-11-18T03:43:46.751Z,98899.36
2017-11-18T03:46:14.226Z,98904.56
2017-11-18T03:48:41.723Z,98899.33
2017-11-18T03:51:09.215Z,98896.97
2017-11-18T03:53:36.686Z,98894.45
2017-11-18T03:56:04.155Z,98902.84
2017-11-18T03:58:31.655Z,98899.74
2017-11-18T04:00:59.122Z,98897.73
2017-11-18T04:03:26.604Z,98899.27
2017-11-18T04:05:54.093Z,98899.86
2017-11-18T04:08:21.555Z,98903.67
2017-11-18T04:10:49.038Z,98899.70
2017-11-18T04:13:16.514Z,98902.91
2017-11-18T04:15:43.979Z,98893.22
2017-11-18T04:18:11.460Z,98890.20
2017-11-18T04:20:38.973Z,98889.86
2017-11-18T04:23:06.459Z,98886.38
2017-11-18T04:25:33.931Z,98885.88
2017-11-18T04:28:01.418Z,98887.09
2017-11-18T04:30:28.913Z,98886.31
2017-11-18T04:32:56.374Z,98884.48
2017-11-18T04:35:23.859Z,98884.08
2017-11-18T04:37:51.358Z,98885.42
2017-11-18T04:40:18.852Z,98881.54
2017-11-18T04:42:46.343Z,98887.54
2017-11-18T04:45:13.817Z,98885.84
2017-11-18T04:47:41.288Z,98887.54
2017-11-18T04:50:08.777Z,98893.58
2017-11-18T04:52:36.243Z,98894.18
2017-11-18T04:55:03.739Z,98896.67
2017-11-18T04:57:31.208Z,98898.93
2017-11-18T04:59:58.670Z,98898.04
2017-11-18T05:02:26.159Z,98903.23
2017-11-18T05:04:53.658Z,98897.63
2017-11-18T05:07:21.117Z,98895.20
2017-11-18T05:09:48.600Z,98896.06
2017-11-18T05:12:16.078Z,98884.16
2017-11-18T05:14:43.567Z,98882.50
2017-11-18T05:17:11.040Z,98884.58
2017-11-18T05:19:38.535Z,98889.47
2017-11-18T05:22:06.022Z,98889.74
2017-11-18T05:24:33.509Z,98886.22
2017-11-18T05:27:01.010Z,98880.25
2017-11-18T05:29:28.501Z,98883.72
2017-11-18T05:31:56.208Z,98876.09
2017-11-18T05:34:23.680Z,98880.25
2017-11-18T05:36:51.149Z,98879.52
2017-11-18T05:39:18.656Z,98881.27
2017-11-18T05:41:46.144Z,98877.66
2017-11-18T05:44:13.645Z,98884.72
2017-11-18T05:46:41.363Z,98879.98
2017-11-18T05:49:08.838Z,98884.30
2017-11-18T05:51:36.337Z,98880.78
2017-11-18T05:54:03.809Z,98880.78
2017-11-18T05:56:31.310Z,98874.98
2017-11-18T05:58:58.801Z,98872.88
2017-11-18T06:01:26.647Z,98876.99
2017-11-18T06:03:54.119Z,98870.72
2017-11-18T06:06:21.598Z,98879.87
2017-11-18T06:08:49.096Z,98874.54
2017-11-18T06:11:16.565Z,98880.09
2017-11-18T06:13:44.068Z,98882.83
2017-11-18T06:16:11.555Z,98885.80
2017-11-18T06:18:39.020Z,98882.84
2017-11-18T06:21:06.510Z,98888.40
2017-11-18T06:23:33.965Z,98894.14
2017-11-18T06:26:01.455Z,98890.54
2017-11-18T06:28:28.919Z,98892.38
2017-11-18T06:30:56.415Z,98884.92
2017-11-18T06:33:24.016Z,98890.14
2017-11-18T06:35:51.499Z,98888.88
2017-11-18T06:38:18.964Z,98887.86
2017-11-18T06:40:46.423Z,98885.79
2017-11-18T06:43:13.913Z,98883.54
2017-11-18T06:45:41.391Z,98889.97
2017-11-18T06:48:08.876Z,98886.50
2017-11-18T06:50:36.367Z,98881.13
2017-11-18T06:53:03.834Z,98877.78
2017-11-18T06:55:31.327Z,98882.16
2017-11-18T06:57:58.799Z,98876.44
2017-11-18T07:00:26.255Z,98867.98
2017-11-18T07:02:53.742Z,98869.30
2017-11-18T07:05:21.207Z,98869.28
2017-11-18T07:07:48.676Z,98870.92
2017-11-18T07:10:16.166Z,98862.39
2017-11-18T07:12:43.645Z,98866.98
2017-11-18T07:15:11.140Z,98862.66
2017-11-18T07:17:38.627Z,98869.46
2017-11-18T07:20:06.088Z,98868.41
2017-11-18T07:22:33.587Z,98870.15
2017-11-18T07:25:01.055Z,98862.20
2017-11-18T07:27:28.543Z,98863.75
2017-11-18T07:29:56.012Z,98857.63
2017-11-18T07:32:23.510Z,98865.16
2017-11-18T07:34:50.981Z,98865.58
2017-11-18T07:37:18.482Z,98865.44
2017-11-18T07:39:45.964Z,98859.80
2017-11-18T07:42:13.462Z,98864.91
2017-11-18T07:44:40.939Z,98870.80
2017-11-18T07:47:08.422Z,98868.72
2017-11-18T07:49:35.883Z,98869.66
2017-11-18T07:52:03.378Z,98874.54
2017-11-18T07:54:30.839Z,98869.47
2017-11-18T07:56:58.327Z,98873.20
2017-11-18T07:59:25.821Z,98874.15
2017-11-18T08:01:53.288Z,98874.63
2017-11-18T08:04:20.767Z,98871.73
2017-11-18T08:06:48.236Z,98870.80
2017-11-18T08:09:15.719Z,98876.22
2017-11-18T08:11:43.202Z,98874.58
2017-11-18T08:14:10.670Z,98876.32
2017-11-18T08:16:38.142Z,98877.20
2017-11-18T08:19:05.647Z,98865.33
2017-11-18T08:21:33.119Z,98870.01
2017-11-18T08:24:00.615Z,98866.20
2017-11-18T08:26:28.100Z,98866.81
2017-11-18T08:28:55.572Z,98861.84
2017-11-18T08:31:23.082Z,98860.31
2017-11-18T08:33:50.547Z,98859.13
2017-11-18T08:36:29.748Z,98852.33
2017-11-18T08:38:57.215Z,98860.73
2017-11-18T08:41:24.691Z,98848.61
2017-11-18T08:43:52.184Z,98849.75
2017-11-18T08:46:19.655Z,98848.05
2017-11-18T08:48:47.147Z,98849.92
2017-11-18T08:51:14.628Z,98850.48
2017-11-18T08:53:42.351Z,98848.80
2017-11-18T08:56:09.826Z,98851.53
2017-11-18T08:58:37.286Z,98864.33
2017-11-18T09:01:04.780Z,98852.78
2017-11-18T09:03:32.238Z,98850.18
2017-11-18T09:05:59.728Z,98851.81
2017-11-18T09:08:27.212Z,98854.05
2017-11-18T09:10:54.714Z,98851.88
2017-11-18T09:13:22.203Z,98852.92
2017-11-18T09:15:49.664Z,98855.36
2017-11-18T09:18:17.150Z,98850.59
2017-11-18T09:20:44.623Z,98856.48
2017-11-18T09:23:12.123Z,98850.84
2017-11-18T09:25:39.591Z,98846.81
2017-11-18T09:28:07.058Z,98847.78
2017-11-18T09:30:34.549Z,98842.83
2017-11-18T09:33:02.016Z,98836.83
2017-11-18T09:35:29.505Z,98839.30
2017-11-18T09:37:56.980Z,98839.53
2017-11-18T09:40:24.479Z,98837.48
2017-11-18T09:42:51.937Z,98828.33
2017-11-18T09:45:19.399Z,98830.02
2017-11-18T09:47:46.883Z,98829.48
2017-11-18T09:50:14.360Z,98819.78
2017-11-18T09:52:41.847Z,98820.43
2017-11-18T09:55:09.316Z,98819.20
2017-11-18T09:57:36.799Z,98817.64
2017-11-18T10:00:04.269Z,98819.52
2017-11-18T10:02:31.748Z,98815.44
2017-11-18T10:04:59.246Z,98809.45
2017-11-18T10:07:26.733Z,98812.23
2017-11-18T10:09:54.311Z,98807.36
2017-11-18T10:12:21.775Z,98803.52
2017-11-18T10:14:49.250Z,98804.46
2017-11-18T10:17:16.755Z,98796.36
2017-11-18T10:19:44.260Z,98807.90
2017-11-18T10:22:11.719Z,98794.36
2017-11-18T10:24:39.222Z,98795.27
2017-11-18T10:27:06.705Z,98791.94
2017-11-18T10:29:34.174Z,98780.56
2017-11-18T10:32:01.667Z,98778.26
2017-11-18T10:34:29.133Z,98784.77
2017-11-18T10:36:56.631Z,98775.18
2017-11-18T10:39:24.131Z,98767.33
2017-11-18T10:41:51.628Z,98765.91
2017-11-18T10:44:19.099Z,98759.34
2017-11-18T10:46:46.583Z,98765.39
2017-11-18T10:49:14.075Z,98759.53
2017-11-18T10:51:41.563Z,98760.36
2017-11-18T10:54:09.041Z,98762.05
2017-11-18T10:56:36.511Z,98760.41
2017-11-18T10:59:04.009Z,98766.16
2017-11-18T11:01:31.503Z,98766.92
2017-11-18T11:03:58.958Z,98768.75
2017-11-18T11:06:26.451Z,98763.06
2017-11-18T11:08:53.937Z,98762.47
2017-11-18T11:11:21.428Z,98758.73
2017-11-18T11:13:48.886Z,98770.36
2017-11-18T11:16:16.390Z,98753.98
2017-11-18T11:21:16.594Z,98756.31
2017-11-18T11:23:44.072Z,98752.47
2017-11-18T11:26:11.564Z,98751.13
2017-11-18T11:28:39.052Z,98740.78
2017-11-18T11:31:06.538Z,98751.77
2017-11-18T11:33:34.010Z,98746.86
2017-11-18T11:36:01.493Z,98745.70
2017-11-18T11:38:28.978Z,98738.59
2017-11-18T11:40:56.439Z,98736.95
2017-11-18T11:43:24.871Z,98736.45
2017-11-18T11:45:52.355Z,98735.47
2017-11-18T11:48:19.813Z,98730.33
2017-11-18T11:50:47.306Z,98722.45
2017-11-18T11:53:14.788Z,98720.81
2017-11-18T11:55:42.249Z,98711.49
2017-11-18T11:58:09.723Z,98704.97
2017-11-18T12:00:37.246Z,98705.70
2017-11-18T12:03:04.716Z,98696.21
2017-11-18T12:05:32.170Z,98696.42
2017-11-18T12:07:59.654Z,98697.91
2017-11-18T12:10:27.111Z,98696.07
2017-11-18T12:12:54.616Z,98692.36
2017-11-18T12:15:22.095Z,98690.16
2017-11-18T12:17:49.566Z,98681.56
2017-11-18T12:20:17.283Z,98684.90
2017-11-18T12:22:44.747Z,98687.12
2017-11-18T12:25:12.212Z,98684.22
2017-11-18T12:27:39.707Z,98678.84
2017-11-18T12:30:07.195Z,98674.91
2017-11-18T12:32:34.694Z,98671.12
2017-11-18T12:35:02.355Z,98668.02
2017-11-18T12:37:29.824Z,98672.17
2017-11-18T12:39:57.279Z,98663.84
2017-11-18T12:42:24.772Z,98665.91
2017-11-18T12:44:52.234Z,98662.77
2017-11-18T12:47:19.714Z,98658.58
2017-11-18T12:49:47.203Z,98658.18
2017-11-18T12:52:14.662Z,98649.11
2017-11-18T12:54:42.151Z,98643.31
2017-11-18T12:57:09.632Z,98643.15
2017-11-18T12:59:37.095Z,98640.45
2017-11-18T13:02:04.586Z,98639.27
2017-11-18T13:04:32.047Z,98639.38
2017-11-18T13:06:59.544Z,98638.67
2017-11-18T13:09:27.010Z,98640.45
2017-11-18T13:11:54.477Z,98633.69
2017-11-18T13:14:21.982Z,98629.61
2017-11-18T13:16:49.446Z,98631.45
2017-11-18T13:19:16.934Z,98624.62
2017-11-18T13:21:44.395Z,98616.92
2017-11-18T13:24:11.884Z,98611.56
2017-11-18T13:26:39.360Z,98620.08
2017-11-18T13:29:06.847Z,98611.48
2017-11-18T13:31:34.312Z,98611.56
2017-11-18T13:34:01.769Z,98604.03
2017-11-18T13:36:29.247Z,98602.23
2017-11-18T13:38:56.701Z,98603.25
2017-11-18T13:41:24.159Z,98598.28
2017-11-18T13:43:51.680Z,98603.89
2017-11-18T13:46:19.139Z,98600.65
2017-11-18T13:48:46.643Z,98602.83
2017-11-18T13:51:14.111Z,98603.11
2017-11-18T13:53:41.602Z,98596.40
2017-11-18T13:56:09.074Z,98594.57
2017-11-18T13:58:36.571Z,98591.12
2017-11-18T14:01:04.046Z,98601.73
2017-11-18T14:03:31.519Z,98603.06
2017-11-18T14:05:59.292Z,98598.80
2017-11-18T14:08:26.751Z,98594.92
2017-11-18T14:10:54.223Z,98589.84
2017-11-18T14:13:21.738Z,98594.78
2017-11-18T14:15:49.231Z,98586.32
2017-11-18T14:18:16.711Z,98584.17
2017-11-18T14:20:44.191Z,98582.08
2017-11-18T14:23:11.654Z,98580.92
2017-11-18T14:25:39.152Z,98588.59
2017-11-18T14:28:06.613Z,98585.23
2017-11-18T14:30:34.073Z,98576.26
2017-11-18T14:33:01.556Z,98578.18
2017-11-18T14:35:29.016Z,98566.68
2017-11-18T14:37:56.509Z,98575.73
2017-11-18T14:40:24.008Z,98569.85
2017-11-18T14:42:51.459Z,98564.66
2017-11-18T14:45:18.959Z,98571.13
2017-11-18T14:47:46.441Z,98569.28
2017-11-18T14:50:13.926Z,98557.79
2017-11-18T14:52:41.388Z,98557.03
2017-11-18T14:55:08.869Z,98562.52
2017-11-18T14:57:36.351Z,98557.88
2017-11-18T15:00:03.817Z,98558.80
2017-11-18T15:02:31.298Z,98557.16
2017-11-18T15:04:58.758Z,98552.34
2017-11-18T15:07:26.257Z,98555.14
2017-11-18T15:09:53.709Z,98551.26
2017-11-18T15:12:21.200Z,98547.57
2017-11-18T15:14:52.270Z,98553.94
2017-11-18T15:17:25.167Z,98545.02
2017-11-18T15:20:00.595Z,98536.84
2017-11-18T15:25:37.036Z,98536.81
2017-11-18T15:28:06.463Z,98529.78
2017-11-18T15:33:39.893Z,98537.13
2017-11-18T15:36:17.336Z,98527.27
2017-11-18T15:38:46.211Z,98523.59
2017-11-18T15:41:13.681Z,98524.78
2017-11-18T15:47:06.898Z,98512.02
2017-11-18T15:49:39.890Z,98519.14
2017-11-18T15:52:09.196Z,98516.98
2017-11-18T15:54:54.409Z,98513.75
2017-11-18T15:57:21.892Z,98520.58
2017-11-18T15:59:52.334Z,98518.73
2017-11-18T16:02:20.279Z,98525.24
2017-11-18T16:04:48.162Z,98523.66
2017-11-18T16:07:16.157Z,98519.48
2017-11-18T16:09:43.676Z,98517.61
2017-11-18T16:12:11.166Z,98515.55
2017-11-18T16:14:38.649Z,98515.13
2017-11-18T16:17:06.131Z,98519.41
2017-11-18T16:19:33.589Z,98516.90
2017-11-18T16:22:01.073Z,98524.28
2017-11-18T16:24:28.525Z,98526.88
2017-11-18T16:26:56.005Z,98520.56
2017-11-18T16:29:23.492Z,98519.50
2017-11-18T16:31:50.957Z,98517.77
2017-11-18T16:34:18.420Z,98515.58
2017-11-18T16:36:45.907Z,98515.92
2017-11-18T16:39:13.368Z,98512.43
2017-11-18T16:41:40.949Z,98509.55
2017-11-18T16:44:08.379Z,98512.35
2017-11-18T16:46:35.859Z,98508.93
2017-11-18T16:49:03.336Z,98515.36
2017-11-18T16:51:30.820Z,98510.11
2017-11-18T16:53:58.303Z,98506.82
2017-11-18T16:56:25.810Z,98503.42
2017-11-18T16:58:53.701Z,98512.95
2017-11-18T17:01:21.166Z,98516.30
2017-11-18T17:03:48.630Z,98516.59
2017-11-18T17:06:16.121Z,98513.47
2017-11-18T17:08:43.630Z,98511.15
2017-11-18T17:11:11.114Z,98506.87
2017-11-18T17:13:38.572Z,98510.70
2017-11-18T17:16:06.080Z,98509.69
2017-11-18T17:18:33.549Z,98508.85
2017-11-18T17:21:01.018Z,98509.48
2017-11-18T17:23:28.514Z,98507.72
2017-11-18T17:25:56.005Z,98514.65
2017-11-18T17:28:23.509Z,98503.73
2017-11-18T17:30:50.975Z,98509.97
2017-11-18T17:33:21.806Z,98501.52
2017-11-18T17:35:49.380Z,98504.55
2017-11-18T17:38:17.135Z,98505.20
2017-11-18T17:40:44.591Z,98496.86
2017-11-18T17:43:12.076Z,98496.94
2017-11-18T17:45:39.546Z,98506.30
2017-11-18T17:48:07.181Z,98496.53
2017-11-18T17:50:34.633Z,98500.81
2017-11-18T17:53:02.122Z,98501.69
2017-11-18T17:55:29.588Z,98497.04
2017-11-18T17:57:57.048Z,98495.55
2017-11-18T18:00:24.528Z,98490.23
2017-11-18T18:02:51.990Z,98482.07
2017-11-18T18:05:19.480Z,98482.17
2017-11-18T18:07:46.935Z,98487.05
2017-11-18T18:10:14.424Z,98478.70
2017-11-18T18:12:41.899Z,98473.70
2017-11-18T18:15:09.375Z,98477.29
2017-11-18T18:17:36.870Z,98479.24
2017-11-18T18:20:04.360Z,98481.44
2017-11-18T18:22:31.843Z,98470.02
2017-11-18T18:24:59.312Z,98469.78
2017-11-18T18:27:26.808Z,98471.55
2017-11-18T18:29:54.271Z,98468.89
2017-11-18T18:32:21.732Z,98473.55
2017-11-18T18:34:49.213Z,98471.63
2017-11-18T18:37:16.666Z,98470.55
2017-11-18T18:39:44.138Z,98468.08
2017-11-18T18:42:11.598Z,98469.43
2017-11-18T18:44:39.086Z,98458.94
2017-11-18T18:47:06.587Z,98463.72
2017-11-18T18:49:34.038Z,98449.77
2017-11-18T18:52:01.511Z,98441.16
2017-11-18T18:54:29.007Z,98439.41
2017-11-18T18:56:56.463Z,98441.94
2017-11-18T18:59:23.942Z,98444.75
2017-11-18T19:01:51.405Z,98432.16
2017-11-18T19:04:18.862Z,98435.16
2017-11-18T19:06:46.344Z,98437.59
2017-11-18T19:09:13.836Z,98442.09
2017-11-18T19:11:41.335Z,98435.54
2017-11-18T19:14:08.787Z,98434.95
2017-11-18T19:16:36.400Z,98442.19
2017-11-18T19:19:03.932Z,98444.37
2017-11-18T19:21:31.400Z,98438.20
2017-11-18T19:23:58.854Z,98431.26
2017-11-18T19:26:26.327Z,98426.95
2017-11-18T19:28:53.954Z,98431.06
2017-11-18T19:31:21.484Z,98434.52
2017-11-18T19:33:48.972Z,98427.80
2017-11-18T19:36:16.469Z,98434.89
2017-11-18T19:38:43.973Z,98433.54
2017-11-18T19:41:11.475Z,98424.66
2017-11-18T19:43:39.097Z,98434.31
2017-11-18T19:46:06.599Z,98432.30
2017-11-18T19:48:34.076Z,98450.20
2017-11-18T19:51:01.771Z,98441.91
2017-11-18T19:53:29.269Z,98449.97
2017-11-18T19:55:56.794Z,98477.72
2017-11-18T19:58:24.342Z,98444.78
2017-11-18T20:00:51.829Z,98451.09
2017-11-18T20:03:19.307Z,98452.09
2017-11-18T20:05:46.846Z,98453.53
2017-11-18T20:08:14.362Z,98460.02
2017-11-18T20:10:42.008Z,98451.98
2017-11-18T20:13:09.492Z,98443.88
2017-11-18T20:15:36.992Z,98450.27
2017-11-18T20:18:04.462Z,98448.08
2017-11-18T20:20:31.952Z,98441.57
2017-11-18T20:23:00.619Z,98467.75
2017-11-18T20:25:28.083Z,98450.23
2017-11-18T20:27:55.757Z,98441.55
2017-11-18T20:30:23.346Z,98442.55
2017-11-18T20:32:50.806Z,98433.30
2017-11-18T20:35:18.288Z,98434.23
2017-11-18T20:37:45.782Z,98420.91
2017-11-18T20:40:13.320Z,98436.65
2017-11-18T20:42:41.127Z,98421.07
2017-11-18T20:45:08.599Z,98442.18
2017-11-18T20:47:36.058Z,98432.50
2017-11-18T20:50:03.568Z,98427.48
2017-11-18T20:52:31.057Z,98428.92
2017-11-18T20:54:58.520Z,98432.34
2017-11-18T20:57:25.973Z,98425.78
2017-11-18T20:59:53.453Z,98439.41
2017-11-18T21:02:20.938Z,98431.47
2017-11-18T21:04:48.405Z,98433.91
2017-11-18T21:07:15.900Z,98438.14
2017-11-18T21:09:43.363Z,98426.84
2017-11-18T21:12:10.826Z,98427.48
2017-11-18T21:14:38.318Z,98438.02
2017-11-18T21:17:05.773Z,98413.09
2017-11-18T21:19:33.248Z,98417.49
2017-11-18T21:22:00.704Z,98420.41
2017-11-18T21:24:28.183Z,98425.06
2017-11-18T21:26:55.643Z,98426.09
2017-11-18T21:29:23.118Z,98426.19
2017-11-18T21:31:50.610Z,98428.70
2017-11-18T21:34:18.062Z,98428.39
2017-11-18T21:36:45.523Z,98423.08
2017-11-18T21:39:12.988Z,98424.59
2017-11-18T21:41:40.444Z,98417.04
2017-11-18T21:44:07.940Z,98424.67
2017-11-18T21:46:35.423Z,98419.94
2017-11-18T21:49:02.907Z,98421.40
2017-11-18T21:51:30.385Z,98416.85
2017-11-18T21:53:57.861Z,98423.50
2017-11-18T21:56:25.335Z,98426.02
2017-11-18T21:58:52.785Z,98419.86
2017-11-18T22:01:20.250Z,98420.92
2017-11-18T22:03:47.702Z,98434.56
2017-11-18T22:06:15.185Z,98422.19
2017-11-18T22:08:42.675Z,98425.39
2017-11-18T22:11:10.139Z,98430.41
2017-11-18T22:13:37.625Z,98421.66
2017-11-18T22:16:05.230Z,98419.03
2017-11-18T22:18:32.716Z,98437.08
2017-11-18T22:21:00.167Z,98426.24
2017-11-18T22:23:27.679Z,98420.86
2017-11-18T22:25:55.147Z,98413.91
2017-11-18T22:28:22.596Z,98414.38
2017-11-18T22:30:50.070Z,98419.35
2017-11-18T22:33:17.517Z,98410.50
2017-11-18T22:35:45.007Z,98419.64
2017-11-18T22:38:12.463Z,98419.58
2017-11-18T22:40:39.906Z,98411.02
2017-11-18T22:43:07.379Z,98399.20
2017-11-18T22:45:34.826Z,98388.88
2017-11-18T22:48:02.314Z,98397.95
2017-11-18T22:50:29.804Z,98402.55
2017-11-18T22:52:57.268Z,98411.05
2017-11-18T22:55:24.749Z,98410.17
2017-11-18T22:57:52.227Z,98406.71
2017-11-18T23:03:19.498Z,98407.35
2017-11-18T23:05:46.980Z,98418.52
2017-11-18T23:08:14.461Z,98414.76
2017-11-18T23:10:41.920Z,98414.19
2017-11-18T23:19:52.547Z,98397.33
2017-11-18T23:22:20.012Z,98396.53
2017-11-18T23:24:47.487Z,98384.02
2017-11-18T23:27:14.949Z,98392.67
2017-11-18T23:29:42.431Z,98388.91
2017-11-18T23:32:09.907Z,98389.18
2017-11-18T23:34:37.362Z,98395.09
2017-11-18T23:37:04.835Z,98386.63
2017-11-18T23:39:32.284Z,98387.26
2017-11-18T23:41:59.758Z,98382.40
2017-11-18T23:44:27.215Z,98382.88
2017-11-18T23:46:54.663Z,98382.31
2017-11-18T23:49:22.144Z,98368.02
2017-11-18T23:51:49.598Z,98367.59
2017-11-18T23:54:17.070Z,98365.91
2017-11-18T23:56:44.740Z,98366.86
2017-11-18T23:59:12.211Z,98354.88
